LFLBLFLY

Guest
Details From LFLB - Aix-les-bains
To LFLY - Lyon Bron
Flight Number -
Tags Generated
Created
Modified
Stats Distance 40 nm / 74 km
Max Altitude 0 ft / 0 m
Waypoints 2
Social Downloads 0
Likes 0
Share VATSIM

Download

Looking for another format? Having issues loading an existing format? Contact us
Advertisement - Login to hide

Notes

Generated

Route

LFLB LFLY

ID Type Via Altitude Latitude Longitude Leg Dist Tot Dist Heading (true) Name
O LFLB APT - 0 ft / 0 m 45.63794˚ 5.88121˚ - 0 nm - Aix-Les-Bains
O LFLY APT - 0 ft / 0 m 45.73501˚ 4.94093˚ 39 nm 39 nm 279° / 278° -

Altitude Profile

Advertisement - Login to hide

LFLB

Details ICAO LFLB (CMF)
Name Aix-Les-Bains
Region France
Timezone Europe/Paris (UTC+2.0)
Stats Elevation 779 ft / 237 m (AMSL)
Location 45.636234° 5.880898°
Runways 2
Magnetic Variation 1.743° E

METAR

Not found

TAF

TAF LFLB 262300Z 2700/2724 VRB03KT CAVOK PROB30 TEMPO 2715/2722 VRB10G25KT 4000 SHRA FEW040CB SCT050TCU

Decode

Departure Runways

ID Width Length Bearing (true) Bearing (mag) Surface Threshold Offset Overrun Length
18 148 ft / 45 m 5,452 ft / 1,662 m 176.72° 174.98° Asphalt 26 ft / 8 m 774 ft / 236 m
18L 197 ft / 60 m 2,309 ft / 704 m 176.70° 174.96° Grass 0 ft / 0 m 0 ft / 0 m
36 148 ft / 45 m 5,452 ft / 1,662 m 356.72° 354.98° Asphalt 23 ft / 7 m 456 ft / 139 m
36R 197 ft / 60 m 2,309 ft / 704 m 356.70° 354.96° Grass 315 ft / 96 m 0 ft / 0 m

LFLY

Details ICAO LFLY (LYN)
Name Lyon Bron
Region France
Timezone Europe/Paris (UTC+2.0)
Stats Elevation 659 ft / 201 m (AMSL)
Location 45.727171° 4.944274°
Runways 1
Magnetic Variation 1.504° E

METAR

LFLY 270400Z AUTO 36003KT 340V070 9999 ///CB 19/15 Q1017 BECMG NSC

Decode

TAF

TAF AMD LFLY 270035Z 2700/2724 16005KT CAVOK TEMPO 2700/2703 4000 TSRA BKN050CB TEMPO 2715/2724 4000 SHRA SCT050TCU PROB40 TEMPO 2716/2721 VRB15G40KT 2500 TSRA SCT050CB

Decode

Destination Runways

ID Width Length Bearing (true) Bearing (mag) Surface Threshold Offset Overrun Length
16 148 ft / 45 m 5,972 ft / 1,820 m 163.44° 161.94° Asphalt 984 ft / 300 m 0 ft / 0 m
34 148 ft / 45 m 5,972 ft / 1,820 m 343.44° 341.94° Asphalt 984 ft / 300 m 0 ft / 0 m

Approach Navaids

Runway Type Ident Frequency Range Bearing (true) Bearing (mag) Slope Elevation
16 Localiser LBO 109.95 MHz 18 nm / 33 km 163.45° 161.95° - 653 ft / 199 m (AMSL)
16 DME LBO 109.95 MHz 18 nm / 33 km - - - 680 ft / 207 m (AMSL)
34 Localiser LY 111.30 MHz 18 nm / 33 km 343.44° 341.94° - 640 ft / 195 m (AMSL)
34 Glidescope LY 111.30 MHz 10 nm / 19 km 343.44° 341.94° 3.00° 659 ft / 201 m (AMSL)
34 DME LY 111.30 MHz 18 nm / 33 km - - - 715 ft / 218 m (AMSL)

Popular Alternatives